createdAt,value
2022-12-03T00:00:06.189Z,1022.06
2022-12-03T00:01:03.316Z,1022.06
2022-12-03T00:02:02.396Z,1022.06
2022-12-03T00:03:02.487Z,1022.02
2022-12-03T00:04:02.555Z,1021.95
2022-12-03T00:05:02.276Z,1022.01
2022-12-03T00:06:02.284Z,1022.00
2022-12-03T00:07:02.259Z,1021.99
2022-12-03T00:08:02.348Z,1021.99
2022-12-03T00:09:02.223Z,1021.99
2022-12-03T00:10:02.266Z,1022.01
2022-12-03T00:11:02.214Z,1022.02
2022-12-03T00:12:02.212Z,1022.02
2022-12-03T00:13:02.185Z,1021.96
2022-12-03T00:14:02.197Z,1022.00
2022-12-03T00:15:02.199Z,1021.95
2022-12-03T00:16:02.252Z,1022.00
2022-12-03T00:17:02.158Z,1021.99
2022-12-03T00:18:02.133Z,1022.05
2022-12-03T00:19:02.132Z,1022.02
2022-12-03T00:20:02.117Z,1022.00
2022-12-03T00:21:02.102Z,1021.98
2022-12-03T00:22:02.143Z,1021.93
2022-12-03T00:23:02.095Z,1021.93
2022-12-03T00:24:02.072Z,1021.95
2022-12-03T00:25:02.081Z,1021.94
2022-12-03T00:26:02.059Z,1021.97
2022-12-03T00:27:02.062Z,1021.95
2022-12-03T00:28:02.035Z,1021.92
2022-12-03T00:29:02.056Z,1021.86
2022-12-03T00:30:02.019Z,1021.98
2022-12-03T00:31:02.042Z,1021.93
2022-12-03T00:32:02.010Z,1021.96
2022-12-03T00:33:01.999Z,1021.93
2022-12-03T00:34:01.990Z,1021.97
2022-12-03T00:35:01.969Z,1021.93
2022-12-03T00:36:01.954Z,1021.97
2022-12-03T00:37:01.976Z,1022.03
2022-12-03T00:38:01.952Z,1021.98
2022-12-03T00:39:01.920Z,1021.99
2022-12-03T00:40:01.912Z,1021.96
2022-12-03T00:41:01.929Z,1021.94
2022-12-03T00:42:01.934Z,1021.93
2022-12-03T00:43:01.890Z,1022.02
2022-12-03T00:44:01.882Z,1021.94
2022-12-03T00:45:01.955Z,1021.96
2022-12-03T00:46:01.887Z,1021.93
2022-12-03T00:47:01.908Z,1021.90
2022-12-03T00:48:01.885Z,1021.94
2022-12-03T00:49:01.819Z,1021.86
2022-12-03T00:50:01.815Z,1021.88
2022-12-03T00:51:01.798Z,1021.93
2022-12-03T00:52:01.784Z,1021.90
2022-12-03T00:53:01.802Z,1021.91
2022-12-03T00:54:01.788Z,1021.91
2022-12-03T00:55:01.782Z,1021.96
2022-12-03T00:56:01.763Z,1021.98
2022-12-03T00:57:01.742Z,1021.96
2022-12-03T00:58:01.726Z,1022.00
2022-12-03T00:59:01.743Z,1021.96
2022-12-03T01:00:01.718Z,1021.95
2022-12-03T01:01:01.714Z,1021.94
2022-12-03T01:02:01.762Z,1021.97
2022-12-03T01:03:01.683Z,1021.92
2022-12-03T01:04:01.667Z,1021.96
2022-12-03T01:05:01.752Z,1021.99
2022-12-03T01:06:01.657Z,1021.98
2022-12-03T01:07:01.644Z,1021.96
2022-12-03T01:08:01.703Z,1021.90
2022-12-03T01:09:01.616Z,1021.95
2022-12-03T01:10:01.627Z,1021.90
2022-12-03T01:11:01.600Z,1021.95
2022-12-03T01:12:01.601Z,1021.95
2022-12-03T01:13:01.577Z,1022.01
2022-12-03T01:14:01.571Z,1021.96
2022-12-03T01:15:01.561Z,1021.99
2022-12-03T01:16:01.611Z,1021.95
2022-12-03T01:17:01.539Z,1021.95
2022-12-03T01:18:01.533Z,1022.06
2022-12-03T01:19:01.527Z,1022.05
2022-12-03T01:20:09.075Z,1021.99
2022-12-03T01:21:09.395Z,1022.04
2022-12-03T01:22:09.061Z,1022.04
2022-12-03T01:23:09.377Z,1022.02
2022-12-03T01:24:01.468Z,1021.98
2022-12-03T01:25:01.520Z,1021.98
2022-12-03T01:26:01.458Z,1022.00
2022-12-03T01:27:01.477Z,1021.98
2022-12-03T01:28:01.426Z,1021.93
2022-12-03T01:29:01.413Z,1021.96
2022-12-03T01:30:01.408Z,1021.92
2022-12-03T01:31:01.458Z,1021.93
2022-12-03T01:32:01.381Z,1021.91
2022-12-03T01:33:01.366Z,1021.93
2022-12-03T01:34:01.378Z,1021.93
2022-12-03T01:35:01.368Z,1021.99
2022-12-03T01:36:01.353Z,1022.00
2022-12-03T01:37:01.331Z,1021.92
2022-12-03T01:38:01.324Z,1021.94
2022-12-03T01:39:01.336Z,1021.93
2022-12-03T01:40:01.308Z,1021.92
2022-12-03T01:41:01.299Z,1021.97
2022-12-03T01:42:01.294Z,1021.95
2022-12-03T01:43:01.285Z,1021.95
2022-12-03T01:44:01.265Z,1021.94
2022-12-03T01:45:01.271Z,1021.91
2022-12-03T01:46:01.250Z,1021.90
2022-12-03T01:47:01.349Z,1021.94
2022-12-03T01:48:01.204Z,1021.90
2022-12-03T01:49:01.210Z,1021.93
2022-12-03T01:50:01.198Z,1021.90
2022-12-03T01:51:01.177Z,1021.92
2022-12-03T01:52:01.190Z,1021.88
2022-12-03T01:53:01.167Z,1021.81
2022-12-03T01:54:01.179Z,1021.88
2022-12-03T01:55:01.157Z,1021.89
2022-12-03T01:56:01.140Z,1021.92
2022-12-03T01:57:01.124Z,1021.91
2022-12-03T01:58:01.123Z,1021.91
2022-12-03T01:59:01.099Z,1021.88
2022-12-03T02:00:01.106Z,1021.94
2022-12-03T02:01:01.090Z,1021.87
2022-12-03T02:02:01.139Z,1021.86
2022-12-03T02:03:01.066Z,1021.93
2022-12-03T02:04:01.098Z,1021.87
2022-12-03T02:05:01.053Z,1021.82
2022-12-03T02:06:01.022Z,1021.94
2022-12-03T02:07:01.012Z,1021.88
2022-12-03T02:08:01.119Z,1021.88
2022-12-03T02:09:01.006Z,1021.94
2022-12-03T02:10:00.998Z,1021.89
2022-12-03T02:11:01.220Z,1021.89
2022-12-03T02:12:00.966Z,1021.84
2022-12-03T02:13:00.955Z,1021.86
2022-12-03T02:14:00.958Z,1021.88
2022-12-03T02:15:00.955Z,1021.91
2022-12-03T02:16:00.960Z,1021.89
2022-12-03T02:17:00.936Z,1021.91
2022-12-03T02:18:00.928Z,1021.93
2022-12-03T02:19:00.887Z,1021.93
2022-12-03T02:20:00.890Z,1021.87
2022-12-03T02:21:00.884Z,1021.86
2022-12-03T02:22:00.882Z,1021.88
2022-12-03T02:23:00.862Z,1021.92
2022-12-03T02:24:00.841Z,1021.83
2022-12-03T02:25:00.859Z,1021.94
2022-12-03T02:26:00.853Z,1021.86
2022-12-03T02:27:00.819Z,1021.90
2022-12-03T02:28:00.807Z,1021.92
2022-12-03T02:29:00.783Z,1021.86
2022-12-03T02:30:00.802Z,1021.86
2022-12-03T02:31:00.844Z,1021.90
2022-12-03T02:32:00.811Z,1021.93
2022-12-03T02:33:00.759Z,1021.88
2022-12-03T02:34:00.751Z,1021.87
2022-12-03T02:35:00.725Z,1021.93
2022-12-03T02:36:03.889Z,1021.90
2022-12-03T02:37:00.709Z,1021.93
2022-12-03T02:38:00.739Z,1021.94
2022-12-03T02:39:00.691Z,1021.88
2022-12-03T02:40:00.678Z,1021.84
2022-12-03T02:41:00.662Z,1021.86
2022-12-03T02:42:00.660Z,1021.86
2022-12-03T02:43:00.682Z,1021.86
2022-12-03T02:44:00.642Z,1021.91
2022-12-03T02:45:04.927Z,1021.86
2022-12-03T02:46:00.632Z,1021.88
2022-12-03T02:47:00.714Z,1021.87
2022-12-03T02:48:00.603Z,1021.85
2022-12-03T02:49:00.643Z,1021.87
2022-12-03T02:50:00.580Z,1021.90
2022-12-03T02:51:00.584Z,1021.84
2022-12-03T02:52:00.560Z,1021.86
2022-12-03T02:53:00.545Z,1021.91
2022-12-03T02:54:00.542Z,1021.85
2022-12-03T02:55:00.581Z,1021.90
2022-12-03T02:56:00.527Z,1021.85
2022-12-03T02:57:00.514Z,1021.86
2022-12-03T02:58:00.507Z,1021.88
2022-12-03T02:59:00.475Z,1021.83
2022-12-03T03:00:00.487Z,1021.91
2022-12-03T03:01:00.554Z,1021.91
2022-12-03T03:02:00.597Z,1021.85
2022-12-03T03:03:00.474Z,1021.87
2022-12-03T03:04:00.436Z,1021.90
2022-12-03T03:05:00.424Z,1021.85
2022-12-03T03:06:00.443Z,1021.84
2022-12-03T03:07:00.413Z,1021.81
2022-12-03T03:08:00.527Z,1021.86
2022-12-03T03:09:00.395Z,1021.84
2022-12-03T03:10:00.371Z,1021.83
2022-12-03T03:11:00.373Z,1021.83
2022-12-03T03:12:00.348Z,1021.83
2022-12-03T03:13:00.344Z,1021.82
2022-12-03T03:14:00.358Z,1021.83
2022-12-03T03:15:00.317Z,1021.82
2022-12-03T03:16:00.389Z,1021.85
2022-12-03T03:17:00.315Z,1021.82
2022-12-03T03:18:00.316Z,1021.82
2022-12-03T03:19:00.311Z,1021.82
2022-12-03T03:20:00.272Z,1021.81
2022-12-03T03:21:00.281Z,1021.77
2022-12-03T03:22:00.255Z,1021.75
2022-12-03T03:23:00.239Z,1021.78
2022-12-03T03:24:00.347Z,1021.75
2022-12-03T03:25:00.219Z,1021.72
2022-12-03T03:26:00.210Z,1021.77
2022-12-03T03:27:00.198Z,1021.70
2022-12-03T03:28:00.186Z,1021.74
2022-12-03T03:29:00.351Z,1021.69
2022-12-03T03:30:00.172Z,1021.74
2022-12-03T03:31:00.175Z,1021.67
2022-12-03T03:32:00.287Z,1021.68
2022-12-03T03:33:00.133Z,1021.71
2022-12-03T03:34:00.144Z,1021.69
2022-12-03T03:35:00.130Z,1021.64
2022-12-03T03:36:00.098Z,1021.67
2022-12-03T03:37:00.112Z,1021.65
2022-12-03T03:38:00.109Z,1021.66
2022-12-03T03:39:00.087Z,1021.61
2022-12-03T03:40:08.609Z,1021.66
2022-12-03T03:41:07.609Z,1021.60
2022-12-03T03:42:09.638Z,1021.69
2022-12-03T03:43:07.610Z,1021.63
2022-12-03T03:44:00.034Z,1021.58
2022-12-03T03:45:00.029Z,1021.62
2022-12-03T03:46:00.117Z,1021.61
2022-12-03T03:47:00.004Z,1021.60
2022-12-03T03:47:59.993Z,1021.56
2022-12-03T03:48:59.975Z,1021.57
2022-12-03T03:49:59.977Z,1021.53
2022-12-03T03:50:59.974Z,1021.52
2022-12-03T03:51:59.978Z,1021.49
2022-12-03T03:52:59.947Z,1021.52
2022-12-03T03:53:59.919Z,1021.53
2022-12-03T03:54:59.910Z,1021.48
2022-12-03T03:55:59.910Z,1021.53
2022-12-03T03:56:59.907Z,1021.49
2022-12-03T03:57:59.920Z,1021.48
2022-12-03T03:58:59.872Z,1021.46
2022-12-03T03:59:59.917Z,1021.44
2022-12-03T04:00:59.870Z,1021.44
2022-12-03T04:01:59.842Z,1021.46
2022-12-03T04:02:59.852Z,1021.48
2022-12-03T04:04:00.937Z,1021.42
2022-12-03T04:04:59.815Z,1021.48
2022-12-03T04:05:59.822Z,1021.49
2022-12-03T04:06:59.797Z,1021.46
2022-12-03T04:07:59.911Z,1021.38
2022-12-03T04:08:59.795Z,1021.46
2022-12-03T04:09:59.767Z,1021.40
2022-12-03T04:10:59.800Z,1021.40
2022-12-03T04:11:59.783Z,1021.42
2022-12-03T04:12:59.729Z,1021.38
2022-12-03T04:13:59.736Z,1021.39
2022-12-03T04:14:59.734Z,1021.39
2022-12-03T04:15:59.700Z,1021.32
2022-12-03T04:16:59.799Z,1021.32
2022-12-03T04:17:59.676Z,1021.33
2022-12-03T04:18:59.690Z,1021.33
2022-12-03T04:19:59.655Z,1021.33
2022-12-03T04:20:59.664Z,1021.35
2022-12-03T04:21:59.698Z,1021.35
2022-12-03T04:22:59.621Z,1021.35
2022-12-03T04:23:59.620Z,1021.35
2022-12-03T04:24:59.610Z,1021.34
2022-12-03T04:25:59.637Z,1021.32
2022-12-03T04:26:59.596Z,1021.32
2022-12-03T04:27:59.577Z,1021.33
2022-12-03T04:28:59.572Z,1021.31
2022-12-03T04:29:59.556Z,1021.31
2022-12-03T04:30:59.619Z,1021.33
2022-12-03T04:31:59.549Z,1021.32
2022-12-03T04:32:59.581Z,1021.31
2022-12-03T04:33:59.505Z,1021.31
2022-12-03T04:34:59.498Z,1021.28
2022-12-03T04:35:59.582Z,1021.38
2022-12-03T04:36:59.497Z,1021.29
2022-12-03T04:37:59.509Z,1021.27
2022-12-03T04:38:59.480Z,1021.33
2022-12-03T04:39:59.456Z,1021.29
2022-12-03T04:40:59.446Z,1021.27
2022-12-03T04:41:59.433Z,1021.32
2022-12-03T04:42:59.426Z,1021.34
2022-12-03T04:43:59.408Z,1021.35
2022-12-03T04:44:59.398Z,1021.26
2022-12-03T04:45:59.507Z,1021.28
2022-12-03T04:46:59.384Z,1021.27
2022-12-03T04:47:59.389Z,1021.29
2022-12-03T04:48:59.355Z,1021.32
2022-12-03T04:49:59.352Z,1021.26
2022-12-03T04:50:59.333Z,1021.32
2022-12-03T04:51:59.329Z,1021.30
2022-12-03T04:52:59.320Z,1021.31
2022-12-03T04:53:59.331Z,1021.33
2022-12-03T04:54:59.304Z,1021.34
2022-12-03T04:55:59.297Z,1021.28
2022-12-03T04:56:59.275Z,1021.32
2022-12-03T04:57:59.276Z,1021.28
2022-12-03T04:58:59.256Z,1021.33
2022-12-03T04:59:59.245Z,1021.26
2022-12-03T05:00:59.332Z,1021.29
2022-12-03T05:01:59.288Z,1021.28
2022-12-03T05:02:59.329Z,1021.34
2022-12-03T05:03:59.206Z,1021.30
2022-12-03T05:04:59.199Z,1021.33
2022-12-03T05:05:59.200Z,1021.30
2022-12-03T05:06:59.170Z,1021.32
2022-12-03T05:07:59.223Z,1021.29
2022-12-03T05:08:59.170Z,1021.25
2022-12-03T05:09:59.151Z,1021.18
2022-12-03T05:10:59.146Z,1021.26
2022-12-03T05:11:59.125Z,1021.24
2022-12-03T05:12:59.109Z,1021.24
2022-12-03T05:13:59.109Z,1021.21
2022-12-03T05:14:59.094Z,1021.21
2022-12-03T05:15:59.108Z,1021.20
2022-12-03T05:16:59.266Z,1021.23
2022-12-03T05:17:59.064Z,1021.27
2022-12-03T05:18:59.045Z,1021.10
2022-12-03T05:19:59.038Z,1021.21
2022-12-03T05:20:59.023Z,1021.15
2022-12-03T05:21:59.036Z,1021.11
2022-12-03T05:22:59.009Z,1021.14
2022-12-03T05:23:59.016Z,1021.08
2022-12-03T05:24:59.023Z,1021.03
2022-12-03T05:25:59.011Z,1021.19
2022-12-03T05:26:58.972Z,1021.09
2022-12-03T05:27:58.952Z,1021.10
2022-12-03T05:28:58.946Z,1021.06
2022-12-03T05:29:58.944Z,1021.16
2022-12-03T05:30:58.979Z,1021.04
2022-12-03T05:31:58.916Z,1021.04
2022-12-03T05:32:58.932Z,1021.07
2022-12-03T05:33:58.893Z,1021.08
2022-12-03T05:34:58.906Z,1021.11
2022-12-03T05:35:58.867Z,1021.13
2022-12-03T05:36:58.890Z,1021.10
2022-12-03T05:37:58.883Z,1021.07
2022-12-03T05:38:58.879Z,1021.09
2022-12-03T05:39:58.865Z,1021.08
2022-12-03T05:40:58.845Z,1021.13
2022-12-03T05:41:58.840Z,1021.09
2022-12-03T05:42:58.841Z,1021.09
2022-12-03T05:43:58.792Z,1021.11
2022-12-03T05:44:58.776Z,1021.10
2022-12-03T05:45:58.830Z,1021.12
2022-12-03T05:46:58.768Z,1021.08
2022-12-03T05:47:58.762Z,1021.06
2022-12-03T05:48:58.761Z,1021.01
2022-12-03T05:49:58.763Z,1021.13
2022-12-03T05:50:58.726Z,1021.04
2022-12-03T05:51:59.040Z,1021.00
2022-12-03T05:52:58.702Z,1021.04
2022-12-03T05:53:58.707Z,1021.02
2022-12-03T05:54:58.686Z,1021.01
2022-12-03T05:55:58.683Z,1021.04
2022-12-03T05:56:58.683Z,1021.05
2022-12-03T05:57:58.671Z,1021.01
2022-12-03T05:58:58.642Z,1020.95
2022-12-03T06:00:06.180Z,1021.10
2022-12-03T06:01:08.187Z,1021.05
2022-12-03T06:02:07.246Z,1021.07
2022-12-03T06:02:58.747Z,1021.05
2022-12-03T06:03:58.628Z,1021.08
2022-12-03T06:04:58.589Z,1021.11
2022-12-03T06:05:58.583Z,1021.02
2022-12-03T06:06:58.569Z,1021.03
2022-12-03T06:07:58.597Z,1021.05
2022-12-03T06:08:58.555Z,1021.09
2022-12-03T06:09:58.554Z,1021.09
2022-12-03T06:10:58.523Z,1021.06
2022-12-03T06:11:58.515Z,1021.06
2022-12-03T06:12:58.495Z,1021.07
2022-12-03T06:13:58.522Z,1021.06
2022-12-03T06:14:58.479Z,1021.07
2022-12-03T06:15:58.558Z,1021.11
2022-12-03T06:16:58.458Z,1021.13
2022-12-03T06:17:58.462Z,1021.07
2022-12-03T06:18:58.438Z,1021.13
2022-12-03T06:19:58.424Z,1021.07
2022-12-03T06:20:58.460Z,1021.09
2022-12-03T06:21:58.412Z,1021.10
2022-12-03T06:22:58.392Z,1021.10
2022-12-03T06:23:58.395Z,1021.10
2022-12-03T06:25:03.397Z,1021.09
2022-12-03T06:25:59.359Z,1021.09
2022-12-03T06:26:58.348Z,1021.08
2022-12-03T06:27:58.361Z,1021.02
2022-12-03T06:28:58.335Z,1021.04
2022-12-03T06:29:58.336Z,1021.02
2022-12-03T06:30:58.378Z,1021.04
2022-12-03T06:31:58.307Z,1021.01
2022-12-03T06:32:58.300Z,1021.06
2022-12-03T06:33:58.285Z,1021.05
2022-12-03T06:34:58.298Z,1021.03
2022-12-03T06:35:58.254Z,1020.99
2022-12-03T06:36:58.251Z,1021.02
2022-12-03T06:37:58.245Z,1021.10
2022-12-03T06:38:58.243Z,1021.06
2022-12-03T06:39:58.238Z,1021.08
2022-12-03T06:40:58.251Z,1021.06
2022-12-03T06:41:58.197Z,1021.09
2022-12-03T06:42:58.199Z,1021.09
2022-12-03T06:43:58.191Z,1021.06
2022-12-03T06:44:58.185Z,1021.08
2022-12-03T06:45:58.173Z,1021.08
2022-12-03T06:46:58.219Z,1021.07
2022-12-03T06:47:58.144Z,1021.08
2022-12-03T06:48:58.140Z,1021.08
2022-12-03T06:49:58.146Z,1021.08
2022-12-03T06:50:58.124Z,1021.10
2022-12-03T06:51:58.110Z,1021.12
2022-12-03T06:52:58.094Z,1021.04
2022-12-03T06:53:58.092Z,1021.07
2022-12-03T06:54:58.071Z,1021.09
2022-12-03T06:55:58.068Z,1021.05
2022-12-03T06:56:58.050Z,1021.05
2022-12-03T06:57:58.038Z,1020.99
2022-12-03T06:58:58.043Z,1021.05
2022-12-03T06:59:58.017Z,1021.01
2022-12-03T07:00:58.019Z,1021.03
2022-12-03T07:01:58.099Z,1021.02
2022-12-03T07:02:58.026Z,1021.01
2022-12-03T07:03:57.979Z,1020.98
2022-12-03T07:04:58.440Z,1021.00
2022-12-03T07:05:57.960Z,1020.95
2022-12-03T07:06:57.955Z,1020.99
2022-12-03T07:07:58.027Z,1021.01
2022-12-03T07:08:57.925Z,1020.96
2022-12-03T07:09:57.922Z,1021.03
2022-12-03T07:10:57.913Z,1020.96
2022-12-03T07:11:57.894Z,1021.01
2022-12-03T07:12:57.905Z,1020.99
2022-12-03T07:14:04.402Z,1021.01
2022-12-03T07:14:58.860Z,1021.11
2022-12-03T07:15:57.904Z,1021.01
2022-12-03T07:16:57.835Z,1021.00
2022-12-03T07:17:57.862Z,1021.00
2022-12-03T07:18:57.845Z,1021.00
2022-12-03T07:19:57.817Z,1021.00
2022-12-03T07:20:57.800Z,1021.02
2022-12-03T07:21:57.783Z,1020.97
2022-12-03T07:22:57.778Z,1020.99
2022-12-03T07:23:57.819Z,1020.99
2022-12-03T07:24:57.751Z,1021.06
2022-12-03T07:25:57.757Z,1021.03
2022-12-03T07:26:57.759Z,1021.01
2022-12-03T07:27:57.732Z,1020.97
2022-12-03T07:28:57.744Z,1021.01
2022-12-03T07:29:57.737Z,1020.98
2022-12-03T07:30:57.741Z,1020.98
2022-12-03T07:31:57.683Z,1020.98
2022-12-03T07:32:57.670Z,1021.02
2022-12-03T07:33:57.700Z,1020.97
2022-12-03T07:34:57.658Z,1021.01
2022-12-03T07:35:57.669Z,1021.03
2022-12-03T07:36:57.637Z,1021.00
2022-12-03T07:37:57.693Z,1021.03
2022-12-03T07:38:57.683Z,1020.97
2022-12-03T07:39:57.625Z,1020.99
2022-12-03T07:40:57.599Z,1020.98
2022-12-03T07:41:57.601Z,1021.00
2022-12-03T07:42:57.574Z,1020.91
2022-12-03T07:43:57.562Z,1021.04
2022-12-03T07:44:57.582Z,1020.98
2022-12-03T07:45:57.553Z,1020.91
2022-12-03T07:46:57.605Z,1020.97
2022-12-03T07:47:57.528Z,1020.91
2022-12-03T07:48:57.540Z,1020.93
2022-12-03T07:49:57.519Z,1020.95
2022-12-03T07:50:57.491Z,1020.94
2022-12-03T07:51:57.489Z,1020.93
2022-12-03T07:52:57.519Z,1020.95
2022-12-03T07:53:57.462Z,1020.97
2022-12-03T07:54:57.449Z,1021.01
2022-12-03T07:55:57.449Z,1020.95
2022-12-03T07:57:01.409Z,1020.94
2022-12-03T07:57:57.431Z,1021.01
2022-12-03T07:58:57.419Z,1020.95
2022-12-03T07:59:57.419Z,1020.98
2022-12-03T08:00:57.445Z,1020.93
2022-12-03T08:01:57.468Z,1021.00
2022-12-03T08:02:57.379Z,1020.96
2022-12-03T08:03:57.370Z,1020.92
2022-12-03T08:04:57.347Z,1020.88
2022-12-03T08:05:57.371Z,1020.92
2022-12-03T08:07:04.901Z,1020.89
2022-12-03T08:07:57.428Z,1020.94
2022-12-03T08:08:57.337Z,1020.87
2022-12-03T08:09:57.303Z,1020.88
2022-12-03T08:10:57.297Z,1020.87
2022-12-03T08:11:57.279Z,1020.90
2022-12-03T08:12:57.267Z,1020.85
2022-12-03T08:13:57.268Z,1020.92
2022-12-03T08:14:57.254Z,1020.92
2022-12-03T08:15:57.288Z,1020.88
2022-12-03T08:16:57.287Z,1020.83
2022-12-03T08:17:57.214Z,1020.84
2022-12-03T08:18:57.212Z,1020.82
2022-12-03T08:19:57.221Z,1020.87
2022-12-03T08:20:57.178Z,1020.85
2022-12-03T08:22:01.245Z,1020.82
2022-12-03T08:22:57.173Z,1020.82
2022-12-03T08:23:57.154Z,1020.83
2022-12-03T08:24:57.158Z,1020.86
2022-12-03T08:25:57.128Z,1020.81
2022-12-03T08:26:57.124Z,1020.77
2022-12-03T08:27:57.109Z,1020.77
2022-12-03T08:28:57.115Z,1020.79
2022-12-03T08:29:57.121Z,1020.75
2022-12-03T08:30:57.079Z,1020.71
2022-12-03T08:31:57.289Z,1020.72
2022-12-03T08:32:57.059Z,1020.71
2022-12-03T08:33:57.047Z,1020.71
2022-12-03T08:34:57.045Z,1020.77
2022-12-03T08:35:57.046Z,1020.71
2022-12-03T08:36:57.022Z,1020.79
2022-12-03T08:37:57.031Z,1020.80
2022-12-03T08:38:57.025Z,1020.78
2022-12-03T08:39:56.994Z,1020.74
2022-12-03T08:40:56.999Z,1020.75
2022-12-03T08:41:56.986Z,1020.71
2022-12-03T08:42:56.965Z,1020.72
2022-12-03T08:43:56.946Z,1020.70
2022-12-03T08:44:57.246Z,1020.73
2022-12-03T08:45:57.046Z,1020.73
2022-12-03T08:46:56.929Z,1020.74
2022-12-03T08:47:56.911Z,1020.76
2022-12-03T08:48:56.896Z,1020.70
2022-12-03T08:49:56.898Z,1020.74
2022-12-03T08:50:56.887Z,1020.76
2022-12-03T08:51:56.880Z,1020.71
2022-12-03T08:52:56.866Z,1020.76
2022-12-03T08:54:01.567Z,1020.75
2022-12-03T08:54:57.970Z,1020.71
2022-12-03T08:55:56.849Z,1020.72
2022-12-03T08:56:56.838Z,1020.71
2022-12-03T08:57:56.805Z,1020.74
2022-12-03T08:58:56.812Z,1020.73
2022-12-03T08:59:56.797Z,1020.73
2022-12-03T09:00:56.843Z,1020.83
2022-12-03T09:01:56.786Z,1020.83
2022-12-03T09:02:56.774Z,1020.75
2022-12-03T09:03:56.849Z,1020.77
2022-12-03T09:04:56.918Z,1020.74
2022-12-03T09:05:56.731Z,1020.74
2022-12-03T09:06:56.714Z,1020.72
2022-12-03T09:07:56.743Z,1020.73
2022-12-03T09:08:56.704Z,1020.70
2022-12-03T09:09:56.724Z,1020.70
2022-12-03T09:10:56.674Z,1020.74
2022-12-03T09:11:56.710Z,1020.77
2022-12-03T09:12:56.657Z,1020.76
2022-12-03T09:13:56.657Z,1020.73
2022-12-03T09:14:56.822Z,1020.74
2022-12-03T09:15:56.617Z,1020.73
2022-12-03T09:16:56.790Z,1020.77
2022-12-03T09:17:56.625Z,1020.69
2022-12-03T09:18:56.594Z,1020.75
2022-12-03T09:19:56.599Z,1020.76
2022-12-03T09:20:56.584Z,1020.73
2022-12-03T09:21:56.565Z,1020.64
2022-12-03T09:22:56.584Z,1020.71
2022-12-03T09:23:56.552Z,1020.66
2022-12-03T09:24:56.716Z,1020.68
2022-12-03T09:25:56.565Z,1020.71
2022-12-03T09:26:56.513Z,1020.64
2022-12-03T09:27:56.510Z,1020.67
2022-12-03T09:28:56.499Z,1020.64
2022-12-03T09:29:56.492Z,1020.62
2022-12-03T09:30:56.477Z,1020.63
2022-12-03T09:31:56.581Z,1020.64
2022-12-03T09:32:56.456Z,1020.62
2022-12-03T09:33:56.450Z,1020.64
2022-12-03T09:34:56.690Z,1020.60
2022-12-03T09:35:56.422Z,1020.59
2022-12-03T09:36:56.429Z,1020.56
2022-12-03T09:37:56.426Z,1020.59
2022-12-03T09:38:56.389Z,1020.58
2022-12-03T09:39:56.383Z,1020.55
2022-12-03T09:40:56.376Z,1020.61
2022-12-03T09:41:56.385Z,1020.61
2022-12-03T09:42:56.362Z,1020.57
2022-12-03T09:44:05.131Z,1020.54
2022-12-03T09:44:57.364Z,1020.58
2022-12-03T09:46:03.962Z,1020.55
2022-12-03T09:46:56.302Z,1020.54
2022-12-03T09:47:56.304Z,1020.54
2022-12-03T09:48:56.292Z,1020.52
2022-12-03T09:49:56.655Z,1020.57
2022-12-03T09:50:56.270Z,1020.54
2022-12-03T09:51:56.251Z,1020.52
2022-12-03T09:52:56.257Z,1020.50
2022-12-03T09:53:56.235Z,1020.56
2022-12-03T09:54:56.479Z,1020.52
2022-12-03T09:55:56.219Z,1020.46
2022-12-03T09:56:56.204Z,1020.56
2022-12-03T09:57:56.208Z,1020.45
2022-12-03T09:58:56.186Z,1020.45
2022-12-03T09:59:56.267Z,1020.41
2022-12-03T10:00:56.209Z,1020.45
2022-12-03T10:01:56.254Z,1020.43
2022-12-03T10:02:56.146Z,1020.44
2022-12-03T10:03:56.131Z,1020.38
2022-12-03T10:04:56.492Z,1020.33
2022-12-03T10:05:56.116Z,1020.35
2022-12-03T10:06:56.115Z,1020.30
2022-12-03T10:07:56.173Z,1020.29
2022-12-03T10:08:56.083Z,1020.28
2022-12-03T10:09:56.367Z,1020.25
2022-12-03T10:10:56.077Z,1020.25
2022-12-03T10:11:56.055Z,1020.25
2022-12-03T10:12:56.031Z,1020.22
2022-12-03T10:13:56.057Z,1020.28
2022-12-03T10:14:56.357Z,1020.25
2022-12-03T10:15:56.031Z,1020.25
2022-12-03T10:16:56.058Z,1020.25
2022-12-03T10:17:56.003Z,1020.21
2022-12-03T10:18:55.996Z,1020.28
2022-12-03T10:19:56.291Z,1020.27
2022-12-03T10:20:55.973Z,1020.27
2022-12-03T10:21:55.954Z,1020.27
2022-12-03T10:22:55.943Z,1020.22
2022-12-03T10:23:55.938Z,1020.21
2022-12-03T10:24:55.940Z,1020.19
2022-12-03T10:25:55.905Z,1020.16
2022-12-03T10:26:55.921Z,1020.20
2022-12-03T10:27:55.900Z,1020.20
2022-12-03T10:28:55.898Z,1020.19
2022-12-03T10:29:56.007Z,1020.12
2022-12-03T10:30:55.892Z,1020.08
2022-12-03T10:31:55.847Z,1020.14
2022-12-03T10:32:55.836Z,1020.11
2022-12-03T10:33:55.834Z,1020.11
2022-12-03T10:34:56.178Z,1020.13
2022-12-03T10:35:55.802Z,1020.09
2022-12-03T10:36:55.811Z,1020.11
2022-12-03T10:37:55.805Z,1020.13
2022-12-03T10:38:55.773Z,1020.11
2022-12-03T10:39:56.539Z,1020.13
2022-12-03T10:40:55.792Z,1020.05
2022-12-03T10:41:55.748Z,1020.09
2022-12-03T10:42:55.738Z,1020.09
2022-12-03T10:43:55.830Z,1020.08
2022-12-03T10:44:55.989Z,1020.08
2022-12-03T10:45:59.044Z,1020.12
2022-12-03T10:46:56.847Z,1020.05
2022-12-03T10:47:55.756Z,1020.03
2022-12-03T10:48:55.688Z,1020.09
2022-12-03T10:49:55.668Z,1020.08
2022-12-03T10:50:55.645Z,1020.08
2022-12-03T10:51:55.645Z,1020.15
2022-12-03T10:52:55.656Z,1020.12
2022-12-03T10:53:55.644Z,1020.11
2022-12-03T10:54:56.071Z,1020.07
2022-12-03T10:55:55.597Z,1020.11
2022-12-03T10:56:55.577Z,1020.11
2022-12-03T10:57:55.566Z,1020.06
2022-12-03T10:58:55.566Z,1020.10
2022-12-03T10:59:55.584Z,1020.04
2022-12-03T11:00:55.546Z,1020.12
2022-12-03T11:01:55.601Z,1020.18
2022-12-03T11:02:57.136Z,1020.09
2022-12-03T11:03:55.555Z,1020.06
2022-12-03T11:04:55.965Z,1020.03
2022-12-03T11:05:55.503Z,1020.10
2022-12-03T11:06:55.500Z,1020.03
2022-12-03T11:07:55.557Z,1020.01
2022-12-03T11:08:59.403Z,1020.02
2022-12-03T11:09:56.494Z,1019.98
2022-12-03T11:10:55.432Z,1020.01
2022-12-03T11:11:55.436Z,1019.96
2022-12-03T11:12:55.421Z,1019.96
2022-12-03T11:13:55.404Z,1020.01
2022-12-03T11:14:55.871Z,1019.99
2022-12-03T11:15:55.472Z,1019.94
2022-12-03T11:16:55.417Z,1019.88
2022-12-03T11:17:55.382Z,1019.93
2022-12-03T11:18:55.356Z,1019.96
2022-12-03T11:19:55.354Z,1019.87
2022-12-03T11:20:55.343Z,1019.87
2022-12-03T11:21:55.386Z,1019.92
2022-12-03T11:22:55.315Z,1019.90
2022-12-03T11:23:55.312Z,1019.87
2022-12-03T11:25:02.849Z,1019.85
2022-12-03T11:26:02.851Z,1019.85
2022-12-03T11:26:55.305Z,1019.83
2022-12-03T11:27:55.298Z,1019.89
2022-12-03T11:28:55.260Z,1019.85
2022-12-03T11:29:55.240Z,1019.84
2022-12-03T11:30:55.314Z,1019.83
2022-12-03T11:31:55.272Z,1019.85
2022-12-03T11:32:55.204Z,1019.81
2022-12-03T11:33:55.225Z,1019.78
2022-12-03T11:34:55.490Z,1019.83
2022-12-03T11:35:55.185Z,1019.78
2022-12-03T11:37:01.873Z,1019.76
2022-12-03T11:37:56.159Z,1019.73
2022-12-03T11:38:55.146Z,1019.76
2022-12-03T11:39:55.322Z,1019.76
2022-12-03T11:40:55.133Z,1019.71
2022-12-03T11:41:55.117Z,1019.67
2022-12-03T11:42:55.120Z,1019.67
2022-12-03T11:43:55.089Z,1019.67
2022-12-03T11:44:55.078Z,1019.64
2022-12-03T11:45:59.640Z,1019.64
2022-12-03T11:46:56.198Z,1019.69
2022-12-03T11:47:55.097Z,1019.63
2022-12-03T11:48:55.052Z,1019.70
2022-12-03T11:49:55.420Z,1019.68
2022-12-03T11:50:55.026Z,1019.60
2022-12-03T11:51:55.029Z,1019.57
2022-12-03T11:52:55.001Z,1019.62
2022-12-03T11:53:55.060Z,1019.60
2022-12-03T11:54:54.983Z,1019.68
2022-12-03T11:55:54.990Z,1019.58
2022-12-03T11:56:54.954Z,1019.62
2022-12-03T11:57:54.953Z,1019.61
2022-12-03T11:58:54.936Z,1019.61
2022-12-03T11:59:55.221Z,1019.60
2022-12-03T12:00:54.920Z,1019.60
2022-12-03T12:01:54.910Z,1019.62
2022-12-03T12:02:55.029Z,1019.60
2022-12-03T12:03:55.064Z,1019.55
2022-12-03T12:04:54.994Z,1019.53